Time;durP1;ratioP1;P1;durP2;ratioP2;P2;SDS_P1;SDS_P2;PMS_P1;PMS_P2;Temp;Humidity;BMP_temperature;BMP_pressure;BME280_temperature;BME280_humidity;BME280_pressure;Samples;Min_cycle;Max_cycle;Signal;HPM_P1;HPM_P2
2023/07/25 00:02:13;;;;;;;7.50;2.88;;;13.30;99.90;;;;;;5090973;28;20508;-85
2023/07/25 00:04:39;;;;;;;9.00;3.00;;;13.30;99.90;;;;;;5074051;28;20044;-87
2023/07/25 00:07:05;;;;;;;10.18;2.88;;;13.30;99.90;;;;;;5071894;28;20056;-87
2023/07/25 00:09:30;;;;;;;11.05;3.17;;;13.30;99.90;;;;;;5078776;28;20179;-86
2023/07/25 00:11:56;;;;;;;8.45;2.63;;;13.20;99.90;;;;;;5070606;28;20064;-85
2023/07/25 00:14:21;;;;;;;6.47;2.75;;;13.20;99.90;;;;;;5067401;28;20040;-85
2023/07/25 00:16:47;;;;;;;6.72;2.50;;;13.20;99.90;;;;;;5090492;28;20435;-85
2023/07/25 00:19:13;;;;;;;6.75;2.88;;;13.20;99.90;;;;;;5047315;28;20076;-86
2023/07/25 00:21:38;;;;;;;9.18;3.20;;;13.30;99.90;;;;;;5053574;28;20045;-86
2023/07/25 00:24:04;;;;;;;6.55;3.17;;;13.20;99.90;;;;;;5052989;28;20447;-85
2023/07/25 00:26:29;;;;;;;10.35;2.67;;;13.20;99.90;;;;;;5071714;28;20055;-85
2023/07/25 00:28:55;;;;;;;9.35;3.72;;;13.20;99.90;;;;;;5055584;28;20140;-86
2023/07/25 00:31:21;;;;;;;10.45;3.38;;;13.20;99.90;;;;;;5073398;28;20091;-86
2023/07/25 00:33:46;;;;;;;5.93;2.22;;;13.20;99.90;;;;;;5056661;28;20032;-85
2023/07/25 00:36:12;;;;;;;7.40;2.85;;;13.20;99.90;;;;;;5076615;28;20041;-85
2023/07/25 00:38:38;;;;;;;10.75;2.85;;;13.20;99.90;;;;;;5058244;28;20450;-84
2023/07/25 00:41:03;;;;;;;7.97;2.90;;;13.20;99.90;;;;;;5055461;28;20454;-84
2023/07/25 00:43:29;;;;;;;6.80;2.55;;;13.20;99.90;;;;;;5054592;28;20404;-84
2023/07/25 00:45:55;;;;;;;6.82;2.35;;;13.20;99.90;;;;;;5074127;28;20047;-85
2023/07/25 00:48:20;;;;;;;8.23;2.78;;;13.10;99.90;;;;;;5071921;28;20044;-86
2023/07/25 00:50:46;;;;;;;7.78;2.80;;;13.20;99.90;;;;;;5073324;28;20036;-87
2023/07/25 00:53:14;;;;;;;6.85;2.70;;;13.20;99.90;;;;;;5088772;28;20076;-87
2023/07/25 00:55:40;;;;;;;7.70;2.58;;;13.10;99.90;;;;;;5076962;28;20116;-87
2023/07/25 00:58:05;;;;;;;9.50;2.78;;;13.10;99.90;;;;;;5051879;28;20120;-85
2023/07/25 01:00:31;;;;;;;9.48;2.67;;;13.00;99.90;;;;;;5070569;28;20049;-85
2023/07/25 01:02:57;;;;;;;7.18;2.38;;;13.10;99.90;;;;;;5065552;28;20036;-84
2023/07/25 01:05:23;;;;;;;11.23;2.90;;;13.00;99.90;;;;;;5074666;28;20429;-84
2023/07/25 01:07:48;;;;;;;10.02;2.60;;;13.00;99.90;;;;;;5056230;28;20044;-86
2023/07/25 01:10:14;;;;;;;7.90;3.00;;;13.00;99.90;;;;;;5055234;28;20044;-85
2023/07/25 01:12:40;;;;;;;6.05;2.90;;;13.10;99.90;;;;;;5072461;28;20037;-85
2023/07/25 01:15:06;;;;;;;8.75;2.70;;;13.10;99.90;;;;;;5060438;28;20036;-86
2023/07/25 01:17:32;;;;;;;8.55;2.75;;;13.20;99.90;;;;;;5072749;28;20401;-85
2023/07/25 01:19:58;;;;;;;6.68;2.70;;;13.20;99.90;;;;;;5071341;28;20041;-85
2023/07/25 01:22:26;;;;;;;7.45;2.60;;;13.20;99.90;;;;;;5072337;28;20481;-86
2023/07/25 01:24:54;;;;;;;8.48;2.70;;;13.10;99.90;;;;;;5066196;28;20057;-86
2023/07/25 01:27:20;;;;;;;9.00;2.80;;;13.10;99.90;;;;;;5073264;28;20052;-86
2023/07/25 01:29:45;;;;;;;7.63;2.47;;;13.10;99.90;;;;;;5071517;28;20045;-85
2023/07/25 01:32:11;;;;;;;8.25;2.63;;;13.10;99.90;;;;;;5071210;28;20047;-85
2023/07/25 01:34:37;;;;;;;6.32;3.20;;;13.20;99.90;;;;;;5059871;28;20037;-85
2023/07/25 01:37:05;;;;;;;9.60;2.63;;;13.20;99.90;;;;;;5054090;28;20443;-85
2023/07/25 01:39:30;;;;;;;7.47;2.70;;;13.20;99.90;;;;;;5072010;28;20041;-83
2023/07/25 01:41:56;;;;;;;8.32;2.75;;;13.20;99.90;;;;;;5055424;28;20047;-86
2023/07/25 01:44:21;;;;;;;8.80;2.67;;;13.20;99.90;;;;;;5080165;28;20077;-85
2023/07/25 01:46:47;;;;;;;10.20;2.75;;;13.20;99.90;;;;;;5055487;28;20037;-86
2023/07/25 01:49:13;;;;;;;8.75;3.17;;;13.10;99.90;;;;;;5071323;28;20116;-86
2023/07/25 01:51:39;;;;;;;7.05;2.72;;;13.10;99.90;;;;;;5068282;28;20036;-85
2023/07/25 01:54:05;;;;;;;10.10;3.13;;;13.10;99.90;;;;;;5069520;28;20041;-86
2023/07/25 01:56:30;;;;;;;7.70;2.70;;;13.10;99.90;;;;;;5055403;28;20151;-86
2023/07/25 01:58:56;;;;;;;8.95;3.00;;;13.10;99.90;;;;;;5055281;28;20127;-85
2023/07/25 02:01:22;;;;;;;7.18;2.63;;;13.00;99.90;;;;;;5068104;28;20032;-86
2023/07/25 02:03:48;;;;;;;9.52;3.10;;;13.10;99.90;;;;;;5071559;28;20040;-85
2023/07/25 02:06:13;;;;;;;9.13;3.10;;;13.10;99.90;;;;;;5064272;28;20086;-84
2023/07/25 02:08:39;;;;;;;8.88;3.17;;;13.10;99.90;;;;;;5059748;28;20067;-85
2023/07/25 02:11:04;;;;;;;8.65;3.10;;;13.10;99.90;;;;;;5070873;28;20458;-86
2023/07/25 02:13:30;;;;;;;8.60;3.10;;;13.10;99.90;;;;;;5064834;28;20029;-84
2023/07/25 02:15:56;;;;;;;10.60;3.53;;;13.10;99.90;;;;;;5075370;28;20543;-86
2023/07/25 02:18:21;;;;;;;8.68;3.28;;;13.10;99.90;;;;;;5058063;28;20082;-83
2023/07/25 02:20:47;;;;;;;8.63;3.05;;;13.00;99.90;;;;;;5071710;28;20511;-85
2023/07/25 02:23:12;;;;;;;9.43;3.15;;;13.10;99.90;;;;;;5087157;28;20048;-85
2023/07/25 02:25:38;;;;;;;12.52;3.05;;;13.10;99.90;;;;;;5070840;28;20041;-86
2023/07/25 02:28:04;;;;;;;10.10;3.28;;;13.10;99.90;;;;;;5052757;28;20140;-85
2023/07/25 02:30:29;;;;;;;9.10;3.70;;;13.10;99.90;;;;;;5052585;28;20059;-84
2023/07/25 02:32:55;;;;;;;7.28;3.03;;;13.10;99.90;;;;;;5053344;28;20123;-85
2023/07/25 02:35:20;;;;;;;8.00;3.20;;;13.10;99.90;;;;;;5075630;28;20032;-84
2023/07/25 02:37:46;;;;;;;10.13;3.20;;;13.10;99.90;;;;;;5070442;28;20078;-85
2023/07/25 02:40:12;;;;;;;8.93;3.20;;;13.20;99.90;;;;;;5088406;28;20040;-85
2023/07/25 02:42:38;;;;;;;9.73;3.00;;;13.20;99.90;;;;;;5065561;28;20451;-84
2023/07/25 02:45:05;;;;;;;9.43;3.30;;;13.10;99.90;;;;;;5067864;28;20079;-85
2023/07/25 02:47:30;;;;;;;10.30;2.95;;;13.10;99.90;;;;;;5060521;28;20485;-86
2023/07/25 02:49:56;;;;;;;10.30;3.35;;;13.10;99.90;;;;;;5053397;28;20128;-86
2023/07/25 02:52:21;;;;;;;9.27;2.72;;;13.10;99.90;;;;;;5079571;28;20036;-86
2023/07/25 02:54:47;;;;;;;6.68;2.60;;;13.10;99.90;;;;;;5074483;28;20496;-86
2023/07/25 02:57:12;;;;;;;9.63;3.35;;;13.20;99.90;;;;;;5051400;28;20137;-86
2023/07/25 02:59:38;;;;;;;8.32;2.80;;;13.10;99.90;;;;;;5042292;28;20041;-85
2023/07/25 03:02:04;;;;;;;8.77;2.65;;;13.10;99.90;;;;;;5088117;28;20047;-85
2023/07/25 03:04:30;;;;;;;6.78;2.63;;;13.10;99.90;;;;;;5070937;28;20385;-85
2023/07/25 03:06:55;;;;;;;10.05;3.05;;;13.10;99.90;;;;;;5054745;28;20055;-85
2023/07/25 03:09:21;;;;;;;10.95;3.22;;;13.10;99.90;;;;;;5068252;28;20047;-85
2023/07/25 03:11:46;;;;;;;10.65;3.40;;;13.10;99.90;;;;;;5054882;28;20044;-85
2023/07/25 03:14:12;;;;;;;10.00;2.65;;;13.20;99.90;;;;;;5067321;28;20115;-85
2023/07/25 03:16:37;;;;;;;8.00;2.92;;;13.20;99.90;;;;;;5072565;28;20036;-85
2023/07/25 03:19:03;;;;;;;8.48;2.90;;;13.10;99.90;;;;;;5072201;28;20081;-85
2023/07/25 03:21:28;;;;;;;8.63;2.60;;;13.20;99.90;;;;;;5068209;28;20455;-85
2023/07/25 03:23:54;;;;;;;8.40;2.78;;;13.10;99.90;;;;;;5043718;28;20041;-84
2023/07/25 03:26:20;;;;;;;8.07;2.83;;;13.20;99.90;;;;;;5089201;28;20443;-85
2023/07/25 03:28:45;;;;;;;9.48;2.97;;;13.20;99.90;;;;;;5074529;28;20059;-84
2023/07/25 03:31:11;;;;;;;9.60;3.22;;;13.20;99.90;;;;;;5077163;28;20132;-84
2023/07/25 03:33:36;;;;;;;9.55;3.25;;;13.20;99.90;;;;;;5061834;28;20037;-84
2023/07/25 03:36:02;;;;;;;7.63;3.13;;;13.20;99.90;;;;;;5084213;28;20040;-84
2023/07/25 03:38:28;;;;;;;7.07;3.05;;;13.20;99.90;;;;;;5057252;28;20029;-84
2023/07/25 03:40:53;;;;;;;11.13;3.00;;;13.20;99.90;;;;;;5056004;28;20109;-84
2023/07/25 03:43:20;;;;;;;6.13;2.53;;;13.20;99.90;;;;;;5058032;28;20052;-84
2023/07/25 03:45:46;;;;;;;8.88;2.83;;;13.30;99.90;;;;;;5090807;28;20115;-83
2023/07/25 03:48:12;;;;;;;7.80;3.08;;;13.30;99.90;;;;;;5090935;28;20091;-83
2023/07/25 03:50:37;;;;;;;8.07;3.08;;;13.30;99.90;;;;;;5090195;28;20052;-84
2023/07/25 03:53:04;;;;;;;9.77;2.80;;;13.40;99.90;;;;;;5073338;28;20033;-84
2023/07/25 03:55:30;;;;;;;11.27;2.85;;;13.40;99.90;;;;;;5073575;28;20035;-84
2023/07/25 03:57:56;;;;;;;8.98;2.72;;;13.40;99.90;;;;;;5071974;28;20036;-84
2023/07/25 04:00:21;;;;;;;11.40;3.17;;;13.50;99.90;;;;;;5055481;28;20544;-85
2023/07/25 04:02:47;;;;;;;7.72;2.85;;;13.50;99.90;;;;;;5055075;28;20040;-85
2023/07/25 04:05:12;;;;;;;7.90;2.78;;;13.50;99.90;;;;;;5055356;28;20083;-85
2023/07/25 04:07:38;;;;;;;10.93;2.85;;;13.60;99.90;;;;;;5063976;28;20033;-84
2023/07/25 04:10:04;;;;;;;12.13;2.90;;;13.60;99.90;;;;;;5073694;28;20036;-84
2023/07/25 04:12:30;;;;;;;11.70;2.80;;;13.60;99.90;;;;;;5082243;28;20408;-84
2023/07/25 04:14:55;;;;;;;8.27;2.65;;;13.60;99.90;;;;;;5083782;28;20116;-83
2023/07/25 04:17:21;;;;;;;6.95;2.70;;;13.60;99.90;;;;;;5053155;28;20125;-84
2023/07/25 04:19:47;;;;;;;10.38;3.00;;;13.60;99.90;;;;;;5070334;28;20076;-83
2023/07/25 04:22:12;;;;;;;10.35;3.17;;;13.60;99.90;;;;;;5053523;28;20045;-83
2023/07/25 04:24:38;;;;;;;9.88;2.90;;;13.60;99.90;;;;;;5070186;28;20402;-83
2023/07/25 04:27:04;;;;;;;7.93;2.88;;;13.60;99.90;;;;;;5074921;28;20119;-83
2023/07/25 04:29:29;;;;;;;10.38;2.97;;;13.60;99.90;;;;;;5050327;28;20059;-83
2023/07/25 04:31:56;;;;;;;8.52;2.72;;;13.50;99.90;;;;;;5085721;28;20056;-83
2023/07/25 04:34:21;;;;;;;8.55;2.88;;;13.50;99.90;;;;;;5054264;28;20032;-84
2023/07/25 04:36:47;;;;;;;9.70;3.03;;;13.50;99.90;;;;;;5055596;28;20037;-83
2023/07/25 04:39:13;;;;;;;9.13;2.60;;;13.60;99.90;;;;;;5072227;28;20106;-83
2023/07/25 04:41:38;;;;;;;6.97;2.60;;;13.60;99.90;;;;;;5073152;28;20043;-83
2023/07/25 04:44:04;;;;;;;8.55;3.05;;;13.60;99.90;;;;;;5081713;28;20037;-83
2023/07/25 04:46:30;;;;;;;11.02;2.78;;;13.60;99.90;;;;;;5070280;28;20077;-83
2023/07/25 04:48:56;;;;;;;7.18;3.00;;;13.60;99.90;;;;;;5070257;28;20047;-83
2023/07/25 04:51:22;;;;;;;6.72;2.65;;;13.60;99.90;;;;;;5071626;28;20044;-83
2023/07/25 04:53:47;;;;;;;7.43;3.03;;;13.60;99.90;;;;;;5083028;28;20029;-83
2023/07/25 04:56:13;;;;;;;8.70;2.53;;;13.60;99.90;;;;;;5068380;28;20067;-83
2023/07/25 04:58:40;;;;;;;8.27;2.97;;;13.60;99.90;;;;;;5071943;28;20040;-83
2023/07/25 05:01:07;;;;;;;9.93;2.85;;;13.60;99.90;;;;;;5075776;28;20040;-83
2023/07/25 05:03:32;;;;;;;10.80;2.75;;;13.60;99.90;;;;;;5069235;28;20047;-83
2023/07/25 05:05:58;;;;;;;8.35;2.72;;;13.60;99.90;;;;;;5067312;28;20115;-83
2023/07/25 05:08:24;;;;;;;10.27;2.78;;;13.60;99.90;;;;;;5072556;28;20048;-83
2023/07/25 05:10:53;;;;;;;5.80;2.50;;;13.60;99.90;;;;;;5071862;28;20044;-83
2023/07/25 05:13:19;;;;;;;8.65;2.40;;;13.60;99.90;;;;;;5062606;28;20037;-83
2023/07/25 05:15:45;;;;;;;8.65;2.65;;;13.60;99.90;;;;;;5068932;28;20124;-82
2023/07/25 05:18:10;;;;;;;6.90;2.55;;;13.60;99.90;;;;;;5070364;28;20112;-82
2023/07/25 05:20:36;;;;;;;12.38;3.15;;;13.60;99.90;;;;;;5086453;28;20404;-82
2023/07/25 05:23:02;;;;;;;9.77;3.05;;;13.60;99.90;;;;;;5071697;28;20082;-82
2023/07/25 05:25:27;;;;;;;9.18;2.75;;;13.60;99.90;;;;;;5071532;28;20046;-82
2023/07/25 05:27:53;;;;;;;7.78;2.70;;;13.60;99.90;;;;;;5073487;28;20055;-83
2023/07/25 05:30:18;;;;;;;8.10;2.88;;;13.60;99.90;;;;;;5071500;28;20072;-82
2023/07/25 05:32:44;;;;;;;11.52;3.00;;;13.70;99.90;;;;;;5075483;28;20075;-82
2023/07/25 05:35:10;;;;;;;7.20;2.42;;;13.70;99.90;;;;;;5063481;28;20442;-82
2023/07/25 05:37:38;;;;;;;8.50;2.85;;;13.70;99.90;;;;;;5077322;28;20135;-82
2023/07/25 05:40:05;;;;;;;13.90;3.10;;;13.70;99.90;;;;;;5065314;28;20472;-82
2023/07/25 05:42:31;;;;;;;8.70;2.55;;;13.70;99.90;;;;;;5071399;28;20051;-83
2023/07/25 05:44:58;;;;;;;8.88;2.72;;;13.80;99.90;;;;;;5055049;28;20040;-83
2023/07/25 05:47:24;;;;;;;7.47;2.40;;;13.80;99.90;;;;;;5053598;28;20503;-83
2023/07/25 05:49:49;;;;;;;8.85;2.80;;;13.80;99.90;;;;;;5071746;28;20040;-83
2023/07/25 05:52:16;;;;;;;10.05;2.65;;;13.90;99.90;;;;;;5067126;28;20036;-83
2023/07/25 05:54:43;;;;;;;10.38;2.88;;;13.90;99.90;;;;;;5086395;28;20094;-83
2023/07/25 05:57:08;;;;;;;11.93;2.78;;;14.00;99.90;;;;;;5070551;28;20040;-83
2023/07/25 05:59:34;;;;;;;13.15;3.00;;;14.00;99.90;;;;;;5072130;28;20050;-83
2023/07/25 06:02:00;;;;;;;11.32;3.00;;;14.10;99.90;;;;;;5059641;28;20056;-83
2023/07/25 06:04:25;;;;;;;8.82;2.55;;;14.20;99.90;;;;;;5070053;28;20068;-84
2023/07/25 06:06:51;;;;;;;8.15;2.47;;;14.40;99.90;;;;;;5055165;28;20477;-83
2023/07/25 06:09:16;;;;;;;5.85;2.30;;;14.50;99.90;;;;;;5058958;28;20029;-84
2023/07/25 06:11:42;;;;;;;8.73;2.42;;;14.60;99.90;;;;;;5057647;28;20041;-83
2023/07/25 06:14:08;;;;;;;8.40;2.40;;;14.70;99.90;;;;;;5069913;28;20071;-84
2023/07/25 06:16:33;;;;;;;8.52;2.55;;;14.80;99.90;;;;;;5067805;28;20371;-84
2023/07/25 06:18:59;;;;;;;11.15;2.50;;;14.90;99.90;;;;;;5047991;28;20082;-84
2023/07/25 06:21:24;;;;;;;5.00;2.13;;;15.00;99.90;;;;;;5088630;28;20051;-84
2023/07/25 06:23:50;;;;;;;9.68;2.10;;;15.10;99.90;;;;;;5068760;28;20130;-84
2023/07/25 06:26:16;;;;;;;11.75;2.10;;;15.20;99.90;;;;;;5071580;28;20045;-84
2023/07/25 06:28:42;;;;;;;8.57;2.00;;;15.30;99.90;;;;;;5056904;28;20497;-84
2023/07/25 06:31:07;;;;;;;7.63;1.83;;;15.40;99.90;;;;;;5050102;28;20037;-84
2023/07/25 06:33:33;;;;;;;10.65;1.80;;;15.50;99.90;;;;;;5070811;28;20033;-84
2023/07/25 06:35:59;;;;;;;13.10;2.42;;;15.40;99.90;;;;;;5065256;28;20043;-84
2023/07/25 06:38:24;;;;;;;6.80;1.80;;;15.60;99.90;;;;;;5070902;28;20083;-84
2023/07/25 06:40:50;;;;;;;7.78;1.88;;;15.60;99.90;;;;;;5070562;28;20387;-84
2023/07/25 06:43:15;;;;;;;9.65;1.90;;;15.70;99.90;;;;;;5074078;28;20049;-84
2023/07/25 06:45:41;;;;;;;6.90;1.55;;;15.60;99.90;;;;;;5081273;28;20508;-84
2023/07/25 06:48:06;;;;;;;6.32;1.65;;;15.70;99.90;;;;;;5064096;28;20036;-84
2023/07/25 06:50:33;;;;;;;9.70;1.75;;;15.70;99.90;;;;;;5069177;28;20044;-84
2023/07/25 06:52:59;;;;;;;7.93;1.60;;;15.80;99.90;;;;;;5083267;28;20076;-84
2023/07/25 06:55:25;;;;;;;4.40;1.45;;;15.90;99.90;;;;;;5048843;28;20493;-84
2023/07/25 06:57:51;;;;;;;10.43;1.70;;;16.00;99.90;;;;;;5067745;28;20037;-84
2023/07/25 07:00:18;;;;;;;6.65;1.65;;;16.00;99.90;;;;;;5070505;28;20053;-84
2023/07/25 07:02:44;;;;;;;5.68;1.30;;;16.10;99.90;;;;;;5064865;28;20094;-83
2023/07/25 07:05:10;;;;;;;9.00;1.65;;;16.10;99.90;;;;;;5060019;28;20044;-84
2023/07/25 07:07:37;;;;;;;6.75;1.30;;;16.10;99.90;;;;;;5073134;28;20548;-83
2023/07/25 07:10:03;;;;;;;4.15;1.27;;;16.10;99.90;;;;;;5072379;28;20685;-83
2023/07/25 07:12:29;;;;;;;8.07;1.23;;;16.10;99.90;;;;;;5075019;28;20041;-84
2023/07/25 07:14:55;;;;;;;6.80;1.27;;;16.10;99.90;;;;;;5060355;28;20447;-83
2023/07/25 07:17:20;;;;;;;7.97;1.33;;;16.20;99.90;;;;;;5082253;28;20388;-84
2023/07/25 07:19:46;;;;;;;8.05;1.23;;;16.30;99.90;;;;;;5075230;28;20063;-83
2023/07/25 07:22:12;;;;;;;7.53;1.30;;;16.30;99.90;;;;;;5042511;28;20041;-83
2023/07/25 07:24:37;;;;;;;5.32;1.05;;;16.40;99.90;;;;;;5054687;28;20404;-83
2023/07/25 07:27:03;;;;;;;5.30;1.00;;;16.40;99.90;;;;;;5059931;28;20039;-83
2023/07/25 07:29:29;;;;;;;5.90;0.90;;;16.40;99.90;;;;;;5057243;28;20057;-83
2023/07/25 07:31:54;;;;;;;4.97;0.90;;;16.40;99.90;;;;;;5075678;28;20516;-83
2023/07/25 07:34:20;;;;;;;5.78;0.93;;;16.40;99.90;;;;;;5065495;28;20080;-84
2023/07/25 07:36:45;;;;;;;2.55;0.95;;;16.40;99.90;;;;;;5075536;28;20041;-84
2023/07/25 07:39:11;;;;;;;4.20;0.80;;;16.50;99.90;;;;;;5072774;28;20040;-82
2023/07/25 07:41:37;;;;;;;4.18;0.90;;;16.50;99.90;;;;;;5071880;28;20079;-74
2023/07/25 07:44:03;;;;;;;4.50;0.80;;;16.60;99.90;;;;;;5050303;28;20543;-85
2023/07/25 07:46:32;;;;;;;4.22;1.08;;;16.60;99.90;;;;;;5067016;28;20458;-74
2023/07/25 07:48:58;;;;;;;6.65;1.15;;;16.70;99.90;;;;;;5070025;28;20488;-84
2023/07/25 07:51:24;;;;;;;5.05;0.90;;;16.70;99.90;;;;;;5056257;28;20052;-84
2023/07/25 07:53:51;;;;;;;5.90;1.00;;;16.80;99.90;;;;;;5064368;28;20115;-82
2023/07/25 07:56:16;;;;;;;7.30;1.00;;;16.80;99.90;;;;;;5069541;28;20040;-84
2023/07/25 07:58:42;;;;;;;6.80;0.95;;;17.00;99.90;;;;;;5067099;28;20036;-83
2023/07/25 08:01:19;;;;;;;4.93;0.80;;;17.00;99.90;;;;;;5064264;28;20048;-83
2023/07/25 08:03:45;;;;;;;5.72;0.82;;;17.20;99.90;;;;;;5066818;28;20204;-83
2023/07/25 08:06:11;;;;;;;5.38;0.80;;;17.10;99.90;;;;;;5057347;28;20080;-83
2023/07/25 08:08:37;;;;;;;5.05;0.90;;;17.20;99.90;;;;;;5067472;28;20079;-83
2023/07/25 08:11:03;;;;;;;3.92;1.05;;;17.30;99.90;;;;;;5083100;28;20435;-83
2023/07/25 08:13:29;;;;;;;6.47;1.23;;;17.20;99.90;;;;;;5069834;28;20094;-83
2023/07/25 08:15:54;;;;;;;3.15;0.82;;;17.10;99.90;;;;;;5064980;28;20141;-82
2023/07/25 08:18:20;;;;;;;6.75;1.30;;;16.90;99.90;;;;;;5060774;28;20029;-83
2023/07/25 08:20:46;;;;;;;8.35;1.10;;;16.80;99.90;;;;;;5061885;28;20037;-83
2023/07/25 08:23:12;;;;;;;3.80;1.20;;;16.80;99.90;;;;;;5058676;28;20120;-83
2023/07/25 08:25:40;;;;;;;2.58;0.95;;;16.90;99.90;;;;;;5062949;28;20182;-83
2023/07/25 08:28:06;;;;;;;4.32;0.88;;;16.90;99.90;;;;;;5068588;28;20520;-83
2023/07/25 08:30:32;;;;;;;7.22;0.90;;;17.10;99.90;;;;;;5055225;28;20164;-83
2023/07/25 08:32:57;;;;;;;4.38;0.90;;;16.90;99.90;;;;;;5069179;28;20047;-82
2023/07/25 08:35:23;;;;;;;6.13;1.00;;;16.80;99.90;;;;;;5066653;28;20041;-83
2023/07/25 08:37:49;;;;;;;8.55;1.27;;;16.80;99.90;;;;;;5054714;28;20392;-82
2023/07/25 08:40:16;;;;;;;7.35;1.20;;;16.90;99.90;;;;;;5077495;28;20045;-83
2023/07/25 08:42:45;;;;;;;4.05;0.80;;;17.10;99.90;;;;;;5071179;28;20041;-83
2023/07/25 08:45:11;;;;;;;10.18;1.52;;;17.30;99.90;;;;;;5056414;28;20060;-83
2023/07/25 08:47:41;;;;;;;10.18;0.93;;;17.20;99.90;;;;;;5070345;28;20040;-81
2023/07/25 08:50:15;;;;;;;5.65;0.90;;;17.30;99.90;;;;;;5057487;28;20037;-82
2023/07/25 08:52:48;;;;;;;2.85;0.70;;;17.50;99.90;;;;;;5060995;28;20040;-83
2023/07/25 08:55:14;;;;;;;5.38;1.00;;;17.60;99.90;;;;;;5063928;28;20124;-82
2023/07/25 08:57:42;;;;;;;3.50;1.00;;;17.70;99.90;;;;;;5073212;28;20120;-83
2023/07/25 09:00:08;;;;;;;3.63;0.90;;;17.90;99.90;;;;;;5069653;28;20037;-83
2023/07/25 09:02:34;;;;;;;4.18;1.00;;;17.90;99.90;;;;;;5077451;28;20444;-83
2023/07/25 09:05:00;;;;;;;6.30;1.15;;;18.00;99.90;;;;;;5072845;28;20119;-84
2023/07/25 09:07:26;;;;;;;7.82;1.10;;;18.10;99.90;;;;;;5083637;28;20050;-83
2023/07/25 09:09:52;;;;;;;5.32;1.10;;;18.40;99.90;;;;;;5066998;28;20033;-83
2023/07/25 09:12:18;;;;;;;7.07;1.30;;;18.30;99.90;;;;;;5068247;28;20040;-82
2023/07/25 09:14:44;;;;;;;7.80;1.10;;;18.30;99.90;;;;;;5041236;28;20044;-84
2023/07/25 09:17:09;;;;;;;6.38;1.08;;;18.30;99.90;;;;;;5053512;28;20124;-84
2023/07/25 09:19:35;;;;;;;4.82;1.40;;;18.50;99.90;;;;;;5068902;28;20033;-83
2023/07/25 09:22:01;;;;;;;3.95;0.98;;;18.60;99.90;;;;;;5065417;28;20044;-84
2023/07/25 09:24:39;;;;;;;3.25;1.10;;;18.50;99.90;;;;;;5037320;28;20047;-84
2023/07/25 09:27:17;;;;;;;5.95;1.10;;;18.40;99.90;;;;;;5067864;28;20052;-83
2023/07/25 09:29:43;;;;;;;5.25;1.10;;;18.20;99.90;;;;;;5068777;28;20110;-83
2023/07/25 09:32:24;;;;;;;4.28;0.90;;;18.20;99.90;;;;;;5070210;28;20097;-83
2023/07/25 09:35:00;;;;;;;5.30;0.85;;;18.10;99.90;;;;;;5060870;28;20447;-83
2023/07/25 09:37:28;;;;;;;3.38;1.00;;;18.10;99.90;;;;;;5053333;28;20033;-83
2023/07/25 09:39:53;;;;;;;3.50;0.90;;;18.20;99.90;;;;;;5071235;28;20048;-83
2023/07/25 09:42:23;;;;;;;3.38;1.17;;;18.30;99.90;;;;;;5038002;28;20048;-83
2023/07/25 09:44:51;;;;;;;4.88;1.40;;;18.40;99.90;;;;;;5059469;28;20076;-83
2023/07/25 09:47:24;;;;;;;5.07;0.73;;;18.60;99.90;;;;;;5071743;28;20072;-83
2023/07/25 09:49:52;;;;;;;4.05;0.85;;;18.80;99.90;;;;;;5070471;28;20049;-82
2023/07/25 09:52:17;;;;;;;4.35;1.15;;;18.70;99.90;;;;;;5067012;28;20283;-83
2023/07/25 09:54:43;;;;;;;4.93;1.10;;;18.60;99.90;;;;;;5072894;28;20468;-83
2023/07/25 09:57:09;;;;;;;5.80;1.10;;;18.50;99.90;;;;;;5052730;28;20036;-82
2023/07/25 09:59:36;;;;;;;6.03;1.00;;;18.50;99.90;;;;;;5048723;28;20049;-84
2023/07/25 10:02:02;;;;;;;5.07;1.10;;;18.60;99.90;;;;;;5064736;28;20097;-83
2023/07/25 10:04:29;;;;;;;2.70;0.82;;;18.80;99.90;;;;;;5055419;28;20497;-83
2023/07/25 10:06:56;;;;;;;6.50;1.13;;;18.80;99.90;;;;;;5059566;28;20048;-84
2023/07/25 10:09:24;;;;;;;4.00;0.98;;;18.80;99.90;;;;;;5050818;28;20493;-83
2023/07/25 10:11:50;;;;;;;6.45;1.23;;;18.80;99.90;;;;;;5043868;28;20040;-83
2023/07/25 10:14:16;;;;;;;5.03;1.17;;;18.50;99.90;;;;;;5077026;28;20483;-83
2023/07/25 10:16:42;;;;;;;5.18;0.93;;;18.50;99.90;;;;;;5084018;28;20111;-82
2023/07/25 10:19:09;;;;;;;5.13;0.98;;;18.40;99.90;;;;;;5068939;28;20036;-83
2023/07/25 10:21:52;;;;;;;8.48;1.60;;;18.50;99.90;;;;;;5045671;28;20045;-82
2023/07/25 10:24:20;;;;;;;6.35;1.10;;;18.60;99.90;;;;;;5059318;28;20496;-82
2023/07/25 10:26:59;;;;;;;6.72;1.20;;;18.70;99.90;;;;;;5062757;28;20041;-82
2023/07/25 10:29:42;;;;;;;6.70;1.20;;;18.90;99.90;;;;;;5041565;28;20057;-82
2023/07/25 10:32:15;;;;;;;4.65;1.23;;;19.00;99.90;;;;;;5055398;28;20048;-82
2023/07/25 10:34:46;;;;;;;5.30;1.10;;;19.20;99.90;;;;;;5075137;28;20041;-82
2023/07/25 10:37:30;;;;;;;4.93;1.00;;;19.20;99.90;;;;;;5075698;28;20511;-82
2023/07/25 10:40:13;;;;;;;3.80;1.00;;;19.20;99.90;;;;;;5074264;28;20067;-82
2023/07/25 10:42:43;;;;;;;7.90;1.13;;;19.00;99.90;;;;;;5065129;28;20097;-82
2023/07/25 10:45:21;;;;;;;6.03;1.10;;;18.90;99.90;;;;;;5073157;28;20452;-81
2023/07/25 10:47:49;;;;;;;3.50;1.00;;;18.80;99.90;;;;;;5076493;28;20485;-82
2023/07/25 10:50:19;;;;;;;7.32;1.15;;;18.60;99.90;;;;;;5075867;28;20375;-82
2023/07/25 10:52:46;;;;;;;7.90;1.50;;;18.70;99.90;;;;;;5076655;28;20450;-83
2023/07/25 10:55:12;;;;;;;6.97;1.38;;;18.90;99.90;;;;;;5074099;28;20373;-82
2023/07/25 10:57:37;;;;;;;5.72;1.10;;;18.90;99.90;;;;;;5063834;28;20087;-82
2023/07/25 11:00:08;;;;;;;6.47;1.20;;;19.10;99.90;;;;;;5044667;28;20029;-81
2023/07/25 11:02:40;;;;;;;5.53;1.10;;;19.00;99.90;;;;;;5060579;28;20049;-82
2023/07/25 11:05:11;;;;;;;7.63;1.10;;;18.80;99.90;;;;;;5074551;28;20079;-78
2023/07/25 11:07:46;;;;;;;5.80;1.10;;;18.80;99.90;;;;;;5070375;28;20055;-78
2023/07/25 11:10:22;;;;;;;6.07;1.40;;;19.00;99.90;;;;;;5054005;28;20041;-72
2023/07/25 11:12:50;;;;;;;5.47;1.20;;;19.00;99.90;;;;;;5067881;28;20124;-72
2023/07/25 11:15:15;;;;;;;7.03;1.35;;;19.20;99.90;;;;;;5074244;28;20037;-72
2023/07/25 11:17:41;;;;;;;9.60;1.48;;;19.20;99.90;;;;;;5050469;28;20064;-71
2023/07/25 11:20:20;;;;;;;6.60;1.20;;;19.40;99.90;;;;;;5068803;28;20041;-73
2023/07/25 11:22:50;;;;;;;7.93;1.20;;;19.50;99.90;;;;;;5053775;28;20077;-72
2023/07/25 11:25:16;;;;;;;5.07;1.27;;;19.50;99.90;;;;;;5057010;28;20431;-81
2023/07/25 11:27:44;;;;;;;6.15;1.13;;;19.40;99.90;;;;;;5054357;28;20052;-81
2023/07/25 11:30:18;;;;;;;6.15;0.90;;;19.20;99.90;;;;;;5071721;28;20044;-81
2023/07/25 11:32:52;;;;;;;7.90;1.70;;;19.10;99.90;;;;;;5052081;28;20120;-82
2023/07/25 11:35:18;;;;;;;5.55;1.17;;;18.90;99.90;;;;;;5046674;28;20044;-82
2023/07/25 11:37:44;;;;;;;6.05;1.17;;;18.80;99.90;;;;;;5072243;28;20059;-82
2023/07/25 11:40:16;;;;;;;5.32;1.30;;;18.70;99.90;;;;;;5051424;28;20037;-82
2023/07/25 11:42:44;;;;;;;4.05;0.88;;;18.70;99.90;;;;;;5057792;28;20041;-82
2023/07/25 11:45:11;;;;;;;8.77;1.23;;;18.70;99.90;;;;;;5052217;28;20054;-82
2023/07/25 11:47:39;;;;;;;6.25;1.52;;;18.60;99.90;;;;;;5060980;28;20045;-82
2023/07/25 11:50:06;;;;;;;5.85;1.20;;;18.70;99.90;;;;;;5036944;28;20049;-82
2023/07/25 11:52:33;;;;;;;8.63;1.20;;;18.80;99.90;;;;;;5053678;28;20087;-81
2023/07/25 11:55:00;;;;;;;4.47;1.00;;;18.80;99.90;;;;;;5074438;28;20032;-81
2023/07/25 11:57:26;;;;;;;6.28;1.23;;;18.80;99.90;;;;;;5071739;28;20116;-82
2023/07/25 11:59:56;;;;;;;3.63;0.75;;;18.70;99.90;;;;;;5053321;28;20116;-82
2023/07/25 12:02:26;;;;;;;6.28;1.15;;;18.50;99.90;;;;;;5053506;28;20049;-82
2023/07/25 12:04:52;;;;;;;4.88;1.10;;;18.50;99.90;;;;;;5075055;28;20044;-81
2023/07/25 12:07:17;;;;;;;3.95;1.00;;;18.50;99.90;;;;;;5073752;28;20052;-82
2023/07/25 12:09:53;;;;;;;6.88;1.30;;;18.50;99.90;;;;;;5041625;28;20049;-82
2023/07/25 12:12:22;;;;;;;7.43;1.10;;;18.40;99.90;;;;;;5057595;28;20090;-82
2023/07/25 12:14:56;;;;;;;6.00;0.88;;;18.40;99.90;;;;;;5090514;28;20457;-82
2023/07/25 12:17:21;;;;;;;3.92;0.90;;;18.30;99.90;;;;;;5073549;28;20506;-81
2023/07/25 12:19:53;;;;;;;7.20;2.15;;;18.30;99.90;;;;;;5076049;28;20116;-81
2023/07/25 12:22:20;;;;;;;6.03;1.40;;;18.30;99.90;;;;;;5065760;28;20072;-82
2023/07/25 12:24:46;;;;;;;4.70;0.88;;;18.30;99.90;;;;;;5056523;28;20044;-82
2023/07/25 12:27:19;;;;;;;3.15;1.00;;;18.50;99.90;;;;;;5068606;28;20113;-82
2023/07/25 12:29:44;;;;;;;4.25;0.95;;;18.60;99.90;;;;;;5056425;28;20072;-81
2023/07/25 12:32:11;;;;;;;3.67;0.90;;;18.50;99.90;;;;;;5057950;28;20068;-82
2023/07/25 12:34:37;;;;;;;4.40;0.80;;;18.50;99.90;;;;;;5064340;28;20086;-82
2023/07/25 12:37:03;;;;;;;5.10;1.25;;;18.40;99.90;;;;;;5068146;28;20032;-82
2023/07/25 12:39:31;;;;;;;4.20;1.20;;;18.40;99.90;;;;;;5062100;28;20043;-81
2023/07/25 12:41:57;;;;;;;3.83;1.08;;;18.50;99.90;;;;;;5052726;28;20394;-81
2023/07/25 12:44:23;;;;;;;6.30;0.88;;;18.70;99.90;;;;;;5063738;28;20040;-81